sensor_id;sensor_type;location;lat;lon;timestamp;P1;durP1;ratioP1;P2;durP2;ratioP2
19836;SDS011;10079;55.740;37.662;2023-07-28T00:01:23;17.47;;;13.73;;
19836;SDS011;10079;55.740;37.662;2023-07-28T00:04:05;15.60;;;12.73;;
19836;SDS011;10079;55.740;37.662;2023-07-28T00:06:46;16.40;;;13.73;;
19836;SDS011;10079;55.740;37.662;2023-07-28T00:09:26;18.40;;;13.93;;
19836;SDS011;10079;55.740;37.662;2023-07-28T00:12:07;15.87;;;13.47;;
19836;SDS011;10079;55.740;37.662;2023-07-28T00:15:00;14.00;;;12.00;;
19836;SDS011;10079;55.740;37.662;2023-07-28T00:17:44;14.73;;;12.83;;
19836;SDS011;10079;55.740;37.662;2023-07-28T00:20:24;15.77;;;12.93;;
19836;SDS011;10079;55.740;37.662;2023-07-28T00:23:05;16.27;;;12.73;;
19836;SDS011;10079;55.740;37.662;2023-07-28T00:25:46;15.77;;;12.73;;
19836;SDS011;10079;55.740;37.662;2023-07-28T00:28:27;15.77;;;12.87;;
19836;SDS011;10079;55.740;37.662;2023-07-28T00:31:08;15.40;;;13.03;;
19836;SDS011;10079;55.740;37.662;2023-07-28T00:33:49;17.23;;;13.53;;
19836;SDS011;10079;55.740;37.662;2023-07-28T00:36:30;17.40;;;14.10;;
19836;SDS011;10079;55.740;37.662;2023-07-28T00:39:11;18.23;;;14.37;;
19836;SDS011;10079;55.740;37.662;2023-07-28T00:41:51;16.03;;;13.17;;
19836;SDS011;10079;55.740;37.662;2023-07-28T00:44:32;16.67;;;13.83;;
19836;SDS011;10079;55.740;37.662;2023-07-28T00:47:16;17.50;;;14.00;;
19836;SDS011;10079;55.740;37.662;2023-07-28T00:50:02;19.17;;;14.43;;
19836;SDS011;10079;55.740;37.662;2023-07-28T00:52:43;19.27;;;13.67;;
19836;SDS011;10079;55.740;37.662;2023-07-28T00:55:28;16.50;;;12.83;;
19836;SDS011;10079;55.740;37.662;2023-07-28T00:58:12;16.87;;;14.33;;
19836;SDS011;10079;55.740;37.662;2023-07-28T01:00:52;17.80;;;15.00;;
19836;SDS011;10079;55.740;37.662;2023-07-28T01:03:33;17.97;;;14.27;;
19836;SDS011;10079;55.740;37.662;2023-07-28T01:09:24;18.77;;;13.27;;
19836;SDS011;10079;55.740;37.662;2023-07-28T01:12:06;22.10;;;15.13;;
19836;SDS011;10079;55.740;37.662;2023-07-28T01:14:45;17.47;;;13.70;;
19836;SDS011;10079;55.740;37.662;2023-07-28T01:17:29;18.37;;;13.20;;
19836;SDS011;10079;55.740;37.662;2023-07-28T01:20:14;17.57;;;13.67;;
19836;SDS011;10079;55.740;37.662;2023-07-28T01:23:05;17.83;;;12.90;;
19836;SDS011;10079;55.740;37.662;2023-07-28T01:26:01;21.47;;;14.30;;
19836;SDS011;10079;55.740;37.662;2023-07-28T01:28:39;19.30;;;14.57;;
19836;SDS011;10079;55.740;37.662;2023-07-28T01:31:20;18.30;;;14.73;;
19836;SDS011;10079;55.740;37.662;2023-07-28T01:34:04;18.63;;;13.57;;
19836;SDS011;10079;55.740;37.662;2023-07-28T01:36:48;19.87;;;14.37;;
19836;SDS011;10079;55.740;37.662;2023-07-28T01:39:29;18.73;;;13.33;;
19836;SDS011;10079;55.740;37.662;2023-07-28T01:42:10;21.10;;;15.40;;
19836;SDS011;10079;55.740;37.662;2023-07-28T01:44:55;20.60;;;13.90;;
19836;SDS011;10079;55.740;37.662;2023-07-28T01:58:06;18.62;;;14.30;;
19836;SDS011;10079;55.740;37.662;2023-07-28T02:11:18;18.83;;;14.63;;
19836;SDS011;10079;55.740;37.662;2023-07-28T02:13:59;16.87;;;13.52;;
19836;SDS011;10079;55.740;37.662;2023-07-28T02:16:40;16.15;;;13.98;;
19836;SDS011;10079;55.740;37.662;2023-07-28T02:19:21;16.63;;;14.23;;
19836;SDS011;10079;55.740;37.662;2023-07-28T02:22:01;17.57;;;14.37;;
19836;SDS011;10079;55.740;37.662;2023-07-28T02:24:42;18.00;;;14.05;;
19836;SDS011;10079;55.740;37.662;2023-07-28T02:27:23;15.57;;;13.20;;
19836;SDS011;10079;55.740;37.662;2023-07-28T02:30:07;18.83;;;13.88;;
19836;SDS011;10079;55.740;37.662;2023-07-28T02:32:47;16.53;;;14.17;;
19836;SDS011;10079;55.740;37.662;2023-07-28T02:35:28;16.17;;;13.53;;
19836;SDS011;10079;55.740;37.662;2023-07-28T02:38:09;19.63;;;14.67;;
19836;SDS011;10079;55.740;37.662;2023-07-28T02:40:49;18.27;;;15.87;;
19836;SDS011;10079;55.740;37.662;2023-07-28T02:43:30;18.93;;;15.10;;
19836;SDS011;10079;55.740;37.662;2023-07-28T02:46:11;18.20;;;14.80;;
19836;SDS011;10079;55.740;37.662;2023-07-28T02:48:51;19.60;;;14.90;;
19836;SDS011;10079;55.740;37.662;2023-07-28T02:51:41;22.57;;;15.60;;
19836;SDS011;10079;55.740;37.662;2023-07-28T02:54:21;19.63;;;15.30;;
19836;SDS011;10079;55.740;37.662;2023-07-28T03:07:46;16.85;;;14.73;;
19836;SDS011;10079;55.740;37.662;2023-07-28T03:10:26;18.37;;;14.63;;
19836;SDS011;10079;55.740;37.662;2023-07-28T03:13:06;21.63;;;14.73;;
19836;SDS011;10079;55.740;37.662;2023-07-28T03:15:47;17.77;;;14.83;;
19836;SDS011;10079;55.740;37.662;2023-07-28T03:18:28;19.70;;;14.40;;
19836;SDS011;10079;55.740;37.662;2023-07-28T03:21:21;17.87;;;13.60;;
19836;SDS011;10079;55.740;37.662;2023-07-28T03:24:13;16.80;;;14.23;;
19836;SDS011;10079;55.740;37.662;2023-07-28T03:26:57;17.27;;;14.40;;
19836;SDS011;10079;55.740;37.662;2023-07-28T03:29:38;19.97;;;14.80;;
19836;SDS011;10079;55.740;37.662;2023-07-28T03:32:19;18.27;;;14.83;;
19836;SDS011;10079;55.740;37.662;2023-07-28T03:35:00;18.57;;;14.10;;
19836;SDS011;10079;55.740;37.662;2023-07-28T03:37:40;17.77;;;14.20;;
19836;SDS011;10079;55.740;37.662;2023-07-28T03:40:22;18.20;;;14.37;;
19836;SDS011;10079;55.740;37.662;2023-07-28T03:43:02;17.50;;;14.00;;
19836;SDS011;10079;55.740;37.662;2023-07-28T03:45:43;19.83;;;13.53;;
19836;SDS011;10079;55.740;37.662;2023-07-28T03:48:24;16.50;;;14.17;;
19836;SDS011;10079;55.740;37.662;2023-07-28T03:51:08;19.27;;;14.07;;
19836;SDS011;10079;55.740;37.662;2023-07-28T03:53:52;21.77;;;16.37;;
19836;SDS011;10079;55.740;37.662;2023-07-28T03:56:36;24.03;;;16.53;;
19836;SDS011;10079;55.740;37.662;2023-07-28T03:59:21;24.80;;;16.57;;
19836;SDS011;10079;55.740;37.662;2023-07-28T04:02:02;22.50;;;17.03;;
19836;SDS011;10079;55.740;37.662;2023-07-28T04:04:46;22.73;;;16.67;;
19836;SDS011;10079;55.740;37.662;2023-07-28T04:07:37;21.30;;;15.43;;
19836;SDS011;10079;55.740;37.662;2023-07-28T04:10:21;22.30;;;16.50;;
19836;SDS011;10079;55.740;37.662;2023-07-28T04:13:01;24.33;;;16.70;;
19836;SDS011;10079;55.740;37.662;2023-07-28T04:15:54;23.23;;;16.77;;
19836;SDS011;10079;55.740;37.662;2023-07-28T04:18:35;22.63;;;16.90;;
19836;SDS011;10079;55.740;37.662;2023-07-28T04:21:24;22.07;;;17.07;;
19836;SDS011;10079;55.740;37.662;2023-07-28T04:24:17;24.20;;;18.23;;
19836;SDS011;10079;55.740;37.662;2023-07-28T04:37:34;24.53;;;19.47;;
19836;SDS011;10079;55.740;37.662;2023-07-28T04:40:18;28.47;;;20.23;;
19836;SDS011;10079;55.740;37.662;2023-07-28T04:42:59;27.33;;;19.00;;
19836;SDS011;10079;55.740;37.662;2023-07-28T04:45:40;24.07;;;17.80;;
19836;SDS011;10079;55.740;37.662;2023-07-28T04:48:21;30.67;;;20.13;;
19836;SDS011;10079;55.740;37.662;2023-07-28T04:51:04;27.53;;;20.20;;
19836;SDS011;10079;55.740;37.662;2023-07-28T04:53:49;26.40;;;19.47;;
19836;SDS011;10079;55.740;37.662;2023-07-28T04:56:33;27.23;;;19.97;;
19836;SDS011;10079;55.740;37.662;2023-07-28T05:09:45;24.77;;;19.33;;
19836;SDS011;10079;55.740;37.662;2023-07-28T05:12:26;22.10;;;17.33;;
19836;SDS011;10079;55.740;37.662;2023-07-28T05:15:07;25.00;;;18.70;;
19836;SDS011;10079;55.740;37.662;2023-07-28T05:17:49;27.30;;;18.97;;
19836;SDS011;10079;55.740;37.662;2023-07-28T05:20:38;22.43;;;17.53;;
19836;SDS011;10079;55.740;37.662;2023-07-28T05:23:19;25.30;;;18.03;;
19836;SDS011;10079;55.740;37.662;2023-07-28T05:25:59;22.33;;;15.03;;
19836;SDS011;10079;55.740;37.662;2023-07-28T05:28:40;18.70;;;15.20;;
19836;SDS011;10079;55.740;37.662;2023-07-28T05:31:24;19.10;;;13.50;;
19836;SDS011;10079;55.740;37.662;2023-07-28T05:34:05;17.80;;;13.23;;
19836;SDS011;10079;55.740;37.662;2023-07-28T05:36:46;16.70;;;13.05;;
19836;SDS011;10079;55.740;37.662;2023-07-28T05:39:27;17.87;;;13.40;;
19836;SDS011;10079;55.740;37.662;2023-07-28T05:42:07;14.87;;;11.77;;
19836;SDS011;10079;55.740;37.662;2023-07-28T05:44:52;14.75;;;11.27;;
19836;SDS011;10079;55.740;37.662;2023-07-28T05:47:33;15.45;;;11.00;;
19836;SDS011;10079;55.740;37.662;2023-07-28T05:50:13;13.05;;;10.52;;
19836;SDS011;10079;55.740;37.662;2023-07-28T05:52:55;13.23;;;9.43;;
19836;SDS011;10079;55.740;37.662;2023-07-28T06:06:13;9.88;;;6.95;;
19836;SDS011;10079;55.740;37.662;2023-07-28T06:08:54;8.10;;;6.32;;
19836;SDS011;10079;55.740;37.662;2023-07-28T06:11:35;9.20;;;6.50;;
19836;SDS011;10079;55.740;37.662;2023-07-28T06:14:27;8.05;;;6.10;;
19836;SDS011;10079;55.740;37.662;2023-07-28T06:17:08;6.30;;;5.60;;
19836;SDS011;10079;55.740;37.662;2023-07-28T06:19:52;7.30;;;5.87;;
19836;SDS011;10079;55.740;37.662;2023-07-28T06:22:33;8.55;;;5.78;;
19836;SDS011;10079;55.740;37.662;2023-07-28T06:25:25;8.02;;;6.20;;
19836;SDS011;10079;55.740;37.662;2023-07-28T06:28:10;9.48;;;5.65;;
19836;SDS011;10079;55.740;37.662;2023-07-28T06:30:54;5.87;;;5.28;;
19836;SDS011;10079;55.740;37.662;2023-07-28T06:33:35;6.82;;;5.15;;
19836;SDS011;10079;55.740;37.662;2023-07-28T06:36:15;7.80;;;5.10;;
19836;SDS011;10079;55.740;37.662;2023-07-28T06:38:56;8.40;;;5.35;;
19836;SDS011;10079;55.740;37.662;2023-07-28T06:41:37;10.50;;;5.32;;
19836;SDS011;10079;55.740;37.662;2023-07-28T06:44:17;6.20;;;4.87;;
19836;SDS011;10079;55.740;37.662;2023-07-28T06:46:58;8.55;;;5.43;;
19836;SDS011;10079;55.740;37.662;2023-07-28T07:00:27;8.82;;;6.97;;
19836;SDS011;10079;55.740;37.662;2023-07-28T07:13:56;11.80;;;8.20;;
19836;SDS011;10079;55.740;37.662;2023-07-28T07:16:49;10.90;;;7.60;;
19836;SDS011;10079;55.740;37.662;2023-07-28T07:19:42;14.07;;;8.13;;
19836;SDS011;10079;55.740;37.662;2023-07-28T07:22:34;12.53;;;8.07;;
19836;SDS011;10079;55.740;37.662;2023-07-28T07:25:27;12.30;;;8.40;;
19836;SDS011;10079;55.740;37.662;2023-07-28T07:38:48;13.05;;;7.47;;
19836;SDS011;10079;55.740;37.662;2023-07-28T07:41:32;10.83;;;7.63;;
19836;SDS011;10079;55.740;37.662;2023-07-28T07:44:13;12.40;;;7.70;;
19836;SDS011;10079;55.740;37.662;2023-07-28T07:46:54;11.23;;;7.63;;
19836;SDS011;10079;55.740;37.662;2023-07-28T07:49:47;13.67;;;7.90;;
19836;SDS011;10079;55.740;37.662;2023-07-28T07:52:28;9.48;;;7.45;;
19836;SDS011;10079;55.740;37.662;2023-07-28T07:55:09;11.47;;;8.53;;
19836;SDS011;10079;55.740;37.662;2023-07-28T07:57:53;12.17;;;9.47;;
19836;SDS011;10079;55.740;37.662;2023-07-28T08:21:36;12.73;;;7.30;;
19836;SDS011;10079;55.740;37.662;2023-07-28T08:24:17;12.50;;;7.45;;
19836;SDS011;10079;55.740;37.662;2023-07-28T08:26:58;8.40;;;6.43;;
19836;SDS011;10079;55.740;37.662;2023-07-28T08:29:38;9.25;;;7.00;;
19836;SDS011;10079;55.740;37.662;2023-07-28T08:32:19;8.32;;;6.78;;
19836;SDS011;10079;55.740;37.662;2023-07-28T08:35:00;9.55;;;6.80;;
19836;SDS011;10079;55.740;37.662;2023-07-28T08:37:41;10.25;;;6.82;;
19836;SDS011;10079;55.740;37.662;2023-07-28T08:40:26;12.90;;;7.72;;
19836;SDS011;10079;55.740;37.662;2023-07-28T08:43:06;10.18;;;6.90;;
19836;SDS011;10079;55.740;37.662;2023-07-28T08:45:51;9.38;;;7.10;;
19836;SDS011;10079;55.740;37.662;2023-07-28T08:48:31;10.23;;;7.12;;
19836;SDS011;10079;55.740;37.662;2023-07-28T08:51:12;7.72;;;5.97;;
19836;SDS011;10079;55.740;37.662;2023-07-28T08:53:53;7.43;;;5.60;;
19836;SDS011;10079;55.740;37.662;2023-07-28T08:56:33;8.23;;;6.45;;
19836;SDS011;10079;55.740;37.662;2023-07-28T09:09:50;9.02;;;6.45;;
19836;SDS011;10079;55.740;37.662;2023-07-28T09:12:44;8.77;;;6.32;;
19836;SDS011;10079;55.740;37.662;2023-07-28T09:15:37;7.55;;;6.00;;
19836;SDS011;10079;55.740;37.662;2023-07-28T09:18:19;7.93;;;6.12;;
19836;SDS011;10079;55.740;37.662;2023-07-28T09:21:00;6.47;;;5.85;;
19836;SDS011;10079;55.740;37.662;2023-07-28T09:23:52;9.27;;;6.53;;
19836;SDS011;10079;55.740;37.662;2023-07-28T09:26:37;9.00;;;7.30;;
19836;SDS011;10079;55.740;37.662;2023-07-28T09:29:19;8.38;;;6.25;;
19836;SDS011;10079;55.740;37.662;2023-07-28T09:32:04;12.25;;;6.72;;
19836;SDS011;10079;55.740;37.662;2023-07-28T09:34:44;7.40;;;6.28;;
19836;SDS011;10079;55.740;37.662;2023-07-28T09:37:25;8.45;;;7.30;;
19836;SDS011;10079;55.740;37.662;2023-07-28T09:40:07;9.07;;;6.95;;
19836;SDS011;10079;55.740;37.662;2023-07-28T09:42:50;9.35;;;6.70;;
19836;SDS011;10079;55.740;37.662;2023-07-28T09:45:34;7.75;;;6.53;;
19836;SDS011;10079;55.740;37.662;2023-07-28T09:48:18;9.77;;;6.53;;
19836;SDS011;10079;55.740;37.662;2023-07-28T09:51:12;9.60;;;6.47;;
19836;SDS011;10079;55.740;37.662;2023-07-28T09:53:58;8.02;;;6.82;;
19836;SDS011;10079;55.740;37.662;2023-07-28T09:56:48;9.60;;;7.32;;
19836;SDS011;10079;55.740;37.662;2023-07-28T09:59:41;8.32;;;6.90;;
19836;SDS011;10079;55.740;37.662;2023-07-28T10:02:30;8.43;;;6.93;;
19836;SDS011;10079;55.740;37.662;2023-07-28T10:05:10;8.63;;;6.72;;
19836;SDS011;10079;55.740;37.662;2023-07-28T10:07:55;7.72;;;6.75;;
19836;SDS011;10079;55.740;37.662;2023-07-28T10:21:15;8.20;;;7.22;;
19836;SDS011;10079;55.740;37.662;2023-07-28T10:23:56;8.70;;;7.80;;
19836;SDS011;10079;55.740;37.662;2023-07-28T10:26:48;8.52;;;6.90;;
19836;SDS011;10079;55.740;37.662;2023-07-28T10:29:29;9.52;;;7.35;;
19836;SDS011;10079;55.740;37.662;2023-07-28T10:32:25;10.57;;;8.50;;
19836;SDS011;10079;55.740;37.662;2023-07-28T10:35:21;11.27;;;8.65;;
19836;SDS011;10079;55.740;37.662;2023-07-28T10:41:09;10.00;;;8.45;;
19836;SDS011;10079;55.740;37.662;2023-07-28T10:44:03;10.07;;;8.85;;
19836;SDS011;10079;55.740;37.662;2023-07-28T11:08:08;10.82;;;9.48;;
19836;SDS011;10079;55.740;37.662;2023-07-28T11:10:48;11.25;;;8.60;;
19836;SDS011;10079;55.740;37.662;2023-07-28T11:13:29;10.55;;;8.32;;
19836;SDS011;10079;55.740;37.662;2023-07-28T11:16:10;10.38;;;8.85;;
19836;SDS011;10079;55.740;37.662;2023-07-28T11:18:51;10.30;;;8.93;;
19836;SDS011;10079;55.740;37.662;2023-07-28T11:21:36;12.80;;;9.77;;
19836;SDS011;10079;55.740;37.662;2023-07-28T11:24:18;8.98;;;8.13;;
19836;SDS011;10079;55.740;37.662;2023-07-28T11:27:02;13.15;;;10.25;;
19836;SDS011;10079;55.740;37.662;2023-07-28T11:29:43;12.98;;;10.00;;
19836;SDS011;10079;55.740;37.662;2023-07-28T11:32:24;12.27;;;10.00;;
19836;SDS011;10079;55.740;37.662;2023-07-28T11:35:14;11.70;;;9.77;;
19836;SDS011;10079;55.740;37.662;2023-07-28T11:37:55;14.48;;;11.45;;
19836;SDS011;10079;55.740;37.662;2023-07-28T11:40:36;15.88;;;11.20;;
19836;SDS011;10079;55.740;37.662;2023-07-28T11:43:21;15.35;;;12.93;;
19836;SDS011;10079;55.740;37.662;2023-07-28T11:46:03;12.15;;;10.23;;
19836;SDS011;10079;55.740;37.662;2023-07-28T11:48:47;11.40;;;8.95;;
19836;SDS011;10079;55.740;37.662;2023-07-28T11:51:28;10.75;;;9.52;;
19836;SDS011;10079;55.740;37.662;2023-07-28T11:54:18;11.10;;;8.65;;
19836;SDS011;10079;55.740;37.662;2023-07-28T11:56:59;11.93;;;9.00;;
19836;SDS011;10079;55.740;37.662;2023-07-28T11:59:45;12.88;;;9.45;;
19836;SDS011;10079;55.740;37.662;2023-07-28T12:02:27;9.75;;;7.87;;
19836;SDS011;10079;55.740;37.662;2023-07-28T12:05:17;11.68;;;8.98;;
19836;SDS011;10079;55.740;37.662;2023-07-28T12:08:10;9.20;;;7.95;;
19836;SDS011;10079;55.740;37.662;2023-07-28T12:10:54;8.57;;;7.65;;
19836;SDS011;10079;55.740;37.662;2023-07-28T12:24:06;9.90;;;8.38;;
19836;SDS011;10079;55.740;37.662;2023-07-28T12:26:47;10.15;;;8.05;;
19836;SDS011;10079;55.740;37.662;2023-07-28T12:29:28;11.02;;;8.55;;
19836;SDS011;10079;55.740;37.662;2023-07-28T12:32:17;9.45;;;8.38;;
19836;SDS011;10079;55.740;37.662;2023-07-28T12:34:58;9.40;;;8.00;;
19836;SDS011;10079;55.740;37.662;2023-07-28T12:37:39;10.25;;;8.55;;
19836;SDS011;10079;55.740;37.662;2023-07-28T12:40:20;13.88;;;10.10;;
19836;SDS011;10079;55.740;37.662;2023-07-28T12:43:04;11.32;;;9.63;;
19836;SDS011;10079;55.740;37.662;2023-07-28T12:45:53;13.27;;;9.77;;
19836;SDS011;10079;55.740;37.662;2023-07-28T12:48:34;11.95;;;9.50;;
19836;SDS011;10079;55.740;37.662;2023-07-28T13:12:37;3.97;;;3.58;;
19836;SDS011;10079;55.740;37.662;2023-07-28T13:15:18;5.45;;;3.83;;
19836;SDS011;10079;55.740;37.662;2023-07-28T13:17:59;5.57;;;3.75;;
19836;SDS011;10079;55.740;37.662;2023-07-28T13:20:52;4.70;;;3.37;;
19836;SDS011;10079;55.740;37.662;2023-07-28T13:23:32;4.80;;;3.40;;
19836;SDS011;10079;55.740;37.662;2023-07-28T13:26:25;3.70;;;3.07;;
19836;SDS011;10079;55.740;37.662;2023-07-28T13:29:18;3.33;;;3.03;;
19836;SDS011;10079;55.740;37.662;2023-07-28T13:32:15;4.33;;;2.87;;
19836;SDS011;10079;55.740;37.662;2023-07-28T13:34:56;3.30;;;2.80;;
19836;SDS011;10079;55.740;37.662;2023-07-28T13:37:40;4.33;;;3.13;;
19836;SDS011;10079;55.740;37.662;2023-07-28T13:40:25;4.93;;;2.87;;
19836;SDS011;10079;55.740;37.662;2023-07-28T13:43:17;3.07;;;2.77;;
19836;SDS011;10079;55.740;37.662;2023-07-28T13:45:57;4.40;;;2.67;;
19836;SDS011;10079;55.740;37.662;2023-07-28T13:59:14;6.13;;;2.90;;
19836;SDS011;10079;55.740;37.662;2023-07-28T14:02:03;4.47;;;3.10;;
19836;SDS011;10079;55.740;37.662;2023-07-28T14:15:21;4.93;;;2.77;;
19836;SDS011;10079;55.740;37.662;2023-07-28T14:18:02;4.47;;;2.67;;
19836;SDS011;10079;55.740;37.662;2023-07-28T14:20:54;3.97;;;2.60;;
19836;SDS011;10079;55.740;37.662;2023-07-28T14:23:38;3.80;;;2.70;;
19836;SDS011;10079;55.740;37.662;2023-07-28T14:26:31;3.63;;;2.50;;
19836;SDS011;10079;55.740;37.662;2023-07-28T14:29:12;3.67;;;2.20;;
19836;SDS011;10079;55.740;37.662;2023-07-28T14:31:52;2.80;;;2.30;;
19836;SDS011;10079;55.740;37.662;2023-07-28T14:34:37;2.87;;;2.43;;
19836;SDS011;10079;55.740;37.662;2023-07-28T14:37:18;3.73;;;2.47;;
19836;SDS011;10079;55.740;37.662;2023-07-28T14:40:11;3.20;;;2.50;;
19836;SDS011;10079;55.740;37.662;2023-07-28T14:42:53;4.27;;;2.60;;
19836;SDS011;10079;55.740;37.662;2023-07-28T14:45:33;2.70;;;2.50;;
19836;SDS011;10079;55.740;37.662;2023-07-28T14:48:14;5.00;;;2.67;;
19836;SDS011;10079;55.740;37.662;2023-07-28T14:50:59;4.00;;;2.40;;
19836;SDS011;10079;55.740;37.662;2023-07-28T14:53:39;3.00;;;2.50;;
19836;SDS011;10079;55.740;37.662;2023-07-28T15:17:25;3.75;;;2.90;;
19836;SDS011;10079;55.740;37.662;2023-07-28T15:20:06;4.83;;;3.40;;
19836;SDS011;10079;55.740;37.662;2023-07-28T15:22:49;5.07;;;3.40;;
19836;SDS011;10079;55.740;37.662;2023-07-28T15:25:33;4.10;;;3.10;;
19836;SDS011;10079;55.740;37.662;2023-07-28T15:28:14;4.17;;;3.50;;
19836;SDS011;10079;55.740;37.662;2023-07-28T15:30:55;5.57;;;3.63;;
19836;SDS011;10079;55.740;37.662;2023-07-28T15:33:37;3.20;;;2.80;;
19836;SDS011;10079;55.740;37.662;2023-07-28T15:36:21;3.97;;;2.97;;
19836;SDS011;10079;55.740;37.662;2023-07-28T15:39:10;4.40;;;2.40;;
19836;SDS011;10079;55.740;37.662;2023-07-28T15:41:54;4.80;;;3.03;;
19836;SDS011;10079;55.740;37.662;2023-07-28T15:44:38;3.60;;;2.57;;
19836;SDS011;10079;55.740;37.662;2023-07-28T15:47:27;3.83;;;2.67;;
19836;SDS011;10079;55.740;37.662;2023-07-28T15:50:08;4.90;;;2.73;;
19836;SDS011;10079;55.740;37.662;2023-07-28T15:52:51;5.10;;;3.87;;
19836;SDS011;10079;55.740;37.662;2023-07-28T15:55:35;7.70;;;3.53;;
19836;SDS011;10079;55.740;37.662;2023-07-28T15:58:19;8.27;;;4.73;;
19836;SDS011;10079;55.740;37.662;2023-07-28T16:01:03;4.23;;;2.73;;
19836;SDS011;10079;55.740;37.662;2023-07-28T16:03:44;3.40;;;3.10;;
19836;SDS011;10079;55.740;37.662;2023-07-28T16:06:37;3.47;;;2.60;;
19836;SDS011;10079;55.740;37.662;2023-07-28T16:09:17;4.43;;;3.23;;
19836;SDS011;10079;55.740;37.662;2023-07-28T16:22:30;2.50;;;2.30;;
19836;SDS011;10079;55.740;37.662;2023-07-28T16:25:15;2.60;;;2.40;;
19836;SDS011;10079;55.740;37.662;2023-07-28T16:28:00;3.60;;;2.93;;
19836;SDS011;10079;55.740;37.662;2023-07-28T16:30:41;2.47;;;2.27;;
19836;SDS011;10079;55.740;37.662;2023-07-28T16:33:34;3.57;;;2.70;;
19836;SDS011;10079;55.740;37.662;2023-07-28T16:36:15;2.77;;;2.33;;
19836;SDS011;10079;55.740;37.662;2023-07-28T16:38:56;4.63;;;2.40;;
19836;SDS011;10079;55.740;37.662;2023-07-28T16:41:48;3.47;;;2.50;;
19836;SDS011;10079;55.740;37.662;2023-07-28T16:44:32;3.00;;;2.70;;
19836;SDS011;10079;55.740;37.662;2023-07-28T16:47:25;3.90;;;2.73;;
19836;SDS011;10079;55.740;37.662;2023-07-28T17:00:54;2.33;;;1.80;;
19836;SDS011;10079;55.740;37.662;2023-07-28T17:03:34;4.10;;;2.67;;
19836;SDS011;10079;55.740;37.662;2023-07-28T17:06:16;2.37;;;2.10;;
19836;SDS011;10079;55.740;37.662;2023-07-28T17:08:57;2.63;;;2.30;;
19836;SDS011;10079;55.740;37.662;2023-07-28T17:11:41;3.67;;;2.43;;
19836;SDS011;10079;55.740;37.662;2023-07-28T17:14:25;3.10;;;2.13;;
19836;SDS011;10079;55.740;37.662;2023-07-28T17:17:11;2.60;;;1.87;;
19836;SDS011;10079;55.740;37.662;2023-07-28T17:19:55;3.53;;;2.23;;
19836;SDS011;10079;55.740;37.662;2023-07-28T17:22:36;2.57;;;2.03;;
19836;SDS011;10079;55.740;37.662;2023-07-28T17:25:16;3.20;;;1.90;;
19836;SDS011;10079;55.740;37.662;2023-07-28T17:27:57;2.23;;;2.00;;
19836;SDS011;10079;55.740;37.662;2023-07-28T17:30:38;2.57;;;1.90;;
19836;SDS011;10079;55.740;37.662;2023-07-28T17:33:31;2.40;;;2.20;;
19836;SDS011;10079;55.740;37.662;2023-07-28T17:36:12;2.43;;;1.90;;
19836;SDS011;10079;55.740;37.662;2023-07-28T17:38:53;3.07;;;1.90;;
19836;SDS011;10079;55.740;37.662;2023-07-28T17:41:34;2.83;;;2.40;;
19836;SDS011;10079;55.740;37.662;2023-07-28T17:44:14;2.70;;;2.10;;
19836;SDS011;10079;55.740;37.662;2023-07-28T17:46:55;2.40;;;1.97;;
19836;SDS011;10079;55.740;37.662;2023-07-28T18:00:13;3.17;;;2.10;;
19836;SDS011;10079;55.740;37.662;2023-07-28T18:02:54;2.70;;;2.00;;
19836;SDS011;10079;55.740;37.662;2023-07-28T18:05:35;5.27;;;2.27;;
19836;SDS011;10079;55.740;37.662;2023-07-28T18:08:16;4.63;;;2.30;;
19836;SDS011;10079;55.740;37.662;2023-07-28T18:10:57;2.63;;;2.10;;
19836;SDS011;10079;55.740;37.662;2023-07-28T18:45:47;4.60;;;2.63;;
19836;SDS011;10079;55.740;37.662;2023-07-28T18:48:28;4.83;;;3.10;;
19836;SDS011;10079;55.740;37.662;2023-07-28T18:51:17;4.50;;;3.50;;
19836;SDS011;10079;55.740;37.662;2023-07-28T18:53:58;5.00;;;2.97;;
19836;SDS011;10079;55.740;37.662;2023-07-28T18:56:51;3.73;;;3.20;;
19836;SDS011;10079;55.740;37.662;2023-07-28T18:59:35;4.17;;;2.93;;
19836;SDS011;10079;55.740;37.662;2023-07-28T19:02:15;3.60;;;2.90;;
19836;SDS011;10079;55.740;37.662;2023-07-28T19:05:00;4.30;;;3.07;;
19836;SDS011;10079;55.740;37.662;2023-07-28T19:07:45;3.57;;;2.90;;
19836;SDS011;10079;55.740;37.662;2023-07-28T19:10:26;4.10;;;2.93;;
19836;SDS011;10079;55.740;37.662;2023-07-28T19:13:07;7.20;;;3.50;;
19836;SDS011;10079;55.740;37.662;2023-07-28T19:15:48;3.97;;;3.23;;
19836;SDS011;10079;55.740;37.662;2023-07-28T19:18:40;4.30;;;3.03;;
19836;SDS011;10079;55.740;37.662;2023-07-28T19:21:30;4.43;;;3.03;;
19836;SDS011;10079;55.740;37.662;2023-07-28T19:34:42;2.93;;;2.70;;
19836;SDS011;10079;55.740;37.662;2023-07-28T19:37:22;5.20;;;3.10;;
19836;SDS011;10079;55.740;37.662;2023-07-28T19:40:03;3.87;;;2.67;;
19836;SDS011;10079;55.740;37.662;2023-07-28T19:42:45;4.67;;;3.17;;
19836;SDS011;10079;55.740;37.662;2023-07-28T19:45:26;3.63;;;3.10;;
19836;SDS011;10079;55.740;37.662;2023-07-28T19:48:12;7.33;;;3.07;;
19836;SDS011;10079;55.740;37.662;2023-07-28T19:50:52;2.90;;;2.27;;
19836;SDS011;10079;55.740;37.662;2023-07-28T19:53:33;2.53;;;2.30;;
19836;SDS011;10079;55.740;37.662;2023-07-28T19:56:14;3.43;;;2.20;;
19836;SDS011;10079;55.740;37.662;2023-07-28T19:58:55;2.43;;;2.23;;
19836;SDS011;10079;55.740;37.662;2023-07-28T20:01:35;3.90;;;2.50;;
19836;SDS011;10079;55.740;37.662;2023-07-28T20:04:25;4.67;;;2.57;;
19836;SDS011;10079;55.740;37.662;2023-07-28T20:07:06;3.60;;;2.13;;
19836;SDS011;10079;55.740;37.662;2023-07-28T20:09:47;5.37;;;3.07;;
19836;SDS011;10079;55.740;37.662;2023-07-28T20:12:28;5.57;;;2.40;;
19836;SDS011;10079;55.740;37.662;2023-07-28T20:15:14;3.77;;;2.40;;
19836;SDS011;10079;55.740;37.662;2023-07-28T20:17:55;2.90;;;2.33;;
19836;SDS011;10079;55.740;37.662;2023-07-28T20:31:24;4.30;;;2.80;;
19836;SDS011;10079;55.740;37.662;2023-07-28T20:34:05;3.50;;;2.67;;
19836;SDS011;10079;55.740;37.662;2023-07-28T20:36:47;2.93;;;2.70;;
19836;SDS011;10079;55.740;37.662;2023-07-28T20:39:28;4.07;;;2.50;;
19836;SDS011;10079;55.740;37.662;2023-07-28T20:42:10;5.27;;;3.87;;
19836;SDS011;10079;55.740;37.662;2023-07-28T20:44:52;4.53;;;3.17;;
19836;SDS011;10079;55.740;37.662;2023-07-28T20:47:32;3.87;;;2.90;;
19836;SDS011;10079;55.740;37.662;2023-07-28T20:50:13;3.27;;;2.67;;
19836;SDS011;10079;55.740;37.662;2023-07-28T20:52:55;4.50;;;3.00;;
19836;SDS011;10079;55.740;37.662;2023-07-28T20:55:48;3.70;;;2.57;;
19836;SDS011;10079;55.740;37.662;2023-07-28T20:58:29;3.17;;;2.53;;
19836;SDS011;10079;55.740;37.662;2023-07-28T21:01:09;4.70;;;2.80;;
19836;SDS011;10079;55.740;37.662;2023-07-28T21:03:50;4.30;;;3.03;;
19836;SDS011;10079;55.740;37.662;2023-07-28T21:06:31;2.97;;;2.60;;
19836;SDS011;10079;55.740;37.662;2023-07-28T21:09:15;2.47;;;1.70;;
19836;SDS011;10079;55.740;37.662;2023-07-28T21:12:04;2.30;;;2.10;;
19836;SDS011;10079;55.740;37.662;2023-07-28T21:14:58;3.83;;;2.50;;
19836;SDS011;10079;55.740;37.662;2023-07-28T21:17:42;3.07;;;2.50;;
19836;SDS011;10079;55.740;37.662;2023-07-28T21:20:27;3.10;;;2.40;;
19836;SDS011;10079;55.740;37.662;2023-07-28T21:23:09;2.50;;;2.30;;